sensor_id;sensor_type;location;lat;lon;timestamp;P1;durP1;ratioP1;P2;durP2;ratioP2
77415;SDS011;66489;49.230;8.520;2023-03-01T05:02:59;24.90;;;12.18;;
77415;SDS011;66489;49.230;8.520;2023-03-01T05:05:27;22.38;;;11.23;;
77415;SDS011;66489;49.230;8.520;2023-03-01T05:07:59;25.38;;;12.52;;
77415;SDS011;66489;49.230;8.520;2023-03-01T05:10:28;26.17;;;11.90;;
77415;SDS011;66489;49.230;8.520;2023-03-01T05:12:59;22.92;;;11.75;;
77415;SDS011;66489;49.230;8.520;2023-03-01T05:15:26;25.17;;;11.80;;
77415;SDS011;66489;49.230;8.520;2023-03-01T05:17:54;24.02;;;11.25;;
77415;SDS011;66489;49.230;8.520;2023-03-01T05:20:25;22.13;;;11.13;;
77415;SDS011;66489;49.230;8.520;2023-03-01T05:22:52;23.83;;;11.73;;
77415;SDS011;66489;49.230;8.520;2023-03-01T05:25:21;24.17;;;12.10;;
77415;SDS011;66489;49.230;8.520;2023-03-01T05:27:48;23.52;;;12.13;;
77415;SDS011;66489;49.230;8.520;2023-03-01T05:30:15;22.95;;;11.73;;
77415;SDS011;66489;49.230;8.520;2023-03-01T05:32:42;30.83;;;15.43;;
77415;SDS011;66489;49.230;8.520;2023-03-01T05:35:11;30.00;;;15.15;;
77415;SDS011;66489;49.230;8.520;2023-03-01T05:37:42;28.37;;;14.03;;
77415;SDS011;66489;49.230;8.520;2023-03-01T05:40:11;24.77;;;13.13;;
77415;SDS011;66489;49.230;8.520;2023-03-01T05:42:43;31.77;;;16.17;;
77415;SDS011;66489;49.230;8.520;2023-03-01T05:45:11;31.25;;;14.73;;
77415;SDS011;66489;49.230;8.520;2023-03-01T05:47:39;34.45;;;18.15;;
77415;SDS011;66489;49.230;8.520;2023-03-01T05:50:13;36.80;;;19.17;;
77415;SDS011;66489;49.230;8.520;2023-03-01T05:52:49;29.10;;;15.30;;
77415;SDS011;66489;49.230;8.520;2023-03-01T05:55:18;28.77;;;14.10;;
77415;SDS011;66489;49.230;8.520;2023-03-01T05:57:46;29.60;;;14.25;;
77415;SDS011;66489;49.230;8.520;2023-03-01T06:00:18;30.75;;;14.60;;
77415;SDS011;66489;49.230;8.520;2023-03-01T06:02:45;35.92;;;16.80;;
77415;SDS011;66489;49.230;8.520;2023-03-01T06:05:12;29.73;;;14.32;;
77415;SDS011;66489;49.230;8.520;2023-03-01T06:07:39;26.42;;;13.27;;
77415;SDS011;66489;49.230;8.520;2023-03-01T06:10:06;25.17;;;12.25;;
77415;SDS011;66489;49.230;8.520;2023-03-01T06:12:34;24.95;;;13.07;;
77415;SDS011;66489;49.230;8.520;2023-03-01T06:15:02;22.48;;;12.15;;
77415;SDS011;66489;49.230;8.520;2023-03-01T06:17:31;24.58;;;12.07;;
77415;SDS011;66489;49.230;8.520;2023-03-01T06:20:04;26.55;;;12.75;;
77415;SDS011;66489;49.230;8.520;2023-03-01T06:22:31;25.35;;;12.80;;
77415;SDS011;66489;49.230;8.520;2023-03-01T06:24:57;25.55;;;12.32;;
77415;SDS011;66489;49.230;8.520;2023-03-01T06:27:24;26.27;;;12.45;;
77415;SDS011;66489;49.230;8.520;2023-03-01T06:29:50;24.08;;;12.25;;
77415;SDS011;66489;49.230;8.520;2023-03-01T06:32:17;29.33;;;13.77;;
77415;SDS011;66489;49.230;8.520;2023-03-01T06:34:44;29.77;;;14.18;;
77415;SDS011;66489;49.230;8.520;2023-03-01T06:37:10;26.00;;;13.13;;
77415;SDS011;66489;49.230;8.520;2023-03-01T06:39:37;25.30;;;12.68;;
77415;SDS011;66489;49.230;8.520;2023-03-01T06:42:04;28.90;;;13.43;;
77415;SDS011;66489;49.230;8.520;2023-03-01T06:44:30;30.15;;;14.48;;
77415;SDS011;66489;49.230;8.520;2023-03-01T06:46:57;28.05;;;12.68;;
77415;SDS011;66489;49.230;8.520;2023-03-01T06:49:23;25.40;;;13.27;;
77415;SDS011;66489;49.230;8.520;2023-03-01T06:51:50;29.02;;;13.77;;
77415;SDS011;66489;49.230;8.520;2023-03-01T06:54:16;31.73;;;14.55;;
77415;SDS011;66489;49.230;8.520;2023-03-01T06:56:46;31.13;;;14.63;;
77415;SDS011;66489;49.230;8.520;2023-03-01T06:59:16;30.20;;;14.20;;
77415;SDS011;66489;49.230;8.520;2023-03-01T07:01:43;30.13;;;14.15;;
77415;SDS011;66489;49.230;8.520;2023-03-01T07:04:10;31.27;;;14.13;;
77415;SDS011;66489;49.230;8.520;2023-03-01T07:06:37;28.85;;;14.55;;
77415;SDS011;66489;49.230;8.520;2023-03-01T07:09:03;29.08;;;14.70;;
77415;SDS011;66489;49.230;8.520;2023-03-01T07:11:30;26.92;;;13.65;;
77415;SDS011;66489;49.230;8.520;2023-03-01T07:13:56;29.95;;;14.23;;
77415;SDS011;66489;49.230;8.520;2023-03-01T07:16:24;29.20;;;13.55;;
77415;SDS011;66489;49.230;8.520;2023-03-01T07:18:51;31.50;;;13.68;;
77415;SDS011;66489;49.230;8.520;2023-03-01T07:21:17;29.67;;;14.07;;
77415;SDS011;66489;49.230;8.520;2023-03-01T07:23:44;27.38;;;13.77;;
77415;SDS011;66489;49.230;8.520;2023-03-01T07:26:13;28.15;;;14.18;;
77415;SDS011;66489;49.230;8.520;2023-03-01T07:28:40;27.65;;;13.68;;
77415;SDS011;66489;49.230;8.520;2023-03-01T07:31:06;28.85;;;13.90;;
77415;SDS011;66489;49.230;8.520;2023-03-01T07:33:33;28.02;;;14.05;;
77415;SDS011;66489;49.230;8.520;2023-03-01T07:36:00;27.95;;;14.45;;
77415;SDS011;66489;49.230;8.520;2023-03-01T07:38:29;26.43;;;14.23;;
77415;SDS011;66489;49.230;8.520;2023-03-01T07:41:16;27.33;;;13.48;;
77415;SDS011;66489;49.230;8.520;2023-03-01T07:43:42;26.63;;;13.45;;
77415;SDS011;66489;49.230;8.520;2023-03-01T07:46:09;28.40;;;13.93;;
77415;SDS011;66489;49.230;8.520;2023-03-01T07:48:36;28.60;;;13.30;;
77415;SDS011;66489;49.230;8.520;2023-03-01T07:51:03;26.33;;;13.40;;
77415;SDS011;66489;49.230;8.520;2023-03-01T07:53:31;24.92;;;13.38;;
77415;SDS011;66489;49.230;8.520;2023-03-01T07:56:10;28.63;;;13.77;;
77415;SDS011;66489;49.230;8.520;2023-03-01T07:58:39;28.60;;;14.13;;
77415;SDS011;66489;49.230;8.520;2023-03-01T08:01:08;28.65;;;13.70;;
77415;SDS011;66489;49.230;8.520;2023-03-01T08:03:36;31.55;;;14.85;;
77415;SDS011;66489;49.230;8.520;2023-03-01T08:06:03;29.08;;;14.07;;
77415;SDS011;66489;49.230;8.520;2023-03-01T08:08:32;30.17;;;14.63;;
77415;SDS011;66489;49.230;8.520;2023-03-01T08:10:59;25.58;;;14.05;;
77415;SDS011;66489;49.230;8.520;2023-03-01T08:13:26;28.60;;;14.20;;
77415;SDS011;66489;49.230;8.520;2023-03-01T08:15:53;27.70;;;14.02;;
77415;SDS011;66489;49.230;8.520;2023-03-01T08:18:20;29.02;;;14.93;;
77415;SDS011;66489;49.230;8.520;2023-03-01T08:20:47;28.13;;;14.20;;
77415;SDS011;66489;49.230;8.520;2023-03-01T08:23:14;28.85;;;14.40;;
77415;SDS011;66489;49.230;8.520;2023-03-01T08:25:40;26.20;;;13.25;;
77415;SDS011;66489;49.230;8.520;2023-03-01T08:28:07;25.85;;;13.13;;
77415;SDS011;66489;49.230;8.520;2023-03-01T08:30:34;29.20;;;13.77;;
77415;SDS011;66489;49.230;8.520;2023-03-01T08:33:00;28.95;;;13.88;;
77415;SDS011;66489;49.230;8.520;2023-03-01T08:35:27;27.98;;;13.45;;
77415;SDS011;66489;49.230;8.520;2023-03-01T08:37:53;23.65;;;13.05;;
77415;SDS011;66489;49.230;8.520;2023-03-01T08:40:20;30.10;;;13.75;;
77415;SDS011;66489;49.230;8.520;2023-03-01T08:42:47;25.83;;;13.82;;
77415;SDS011;66489;49.230;8.520;2023-03-01T08:45:13;25.52;;;13.05;;
77415;SDS011;66489;49.230;8.520;2023-03-01T08:47:44;26.73;;;13.73;;
77415;SDS011;66489;49.230;8.520;2023-03-01T08:50:11;25.83;;;14.68;;
77415;SDS011;66489;49.230;8.520;2023-03-01T08:52:38;24.98;;;13.43;;
77415;SDS011;66489;49.230;8.520;2023-03-01T08:55:04;27.88;;;14.63;;
77415;SDS011;66489;49.230;8.520;2023-03-01T08:57:32;29.42;;;14.43;;
77415;SDS011;66489;49.230;8.520;2023-03-01T08:59:58;27.05;;;13.63;;
77415;SDS011;66489;49.230;8.520;2023-03-01T09:02:25;25.77;;;13.98;;
77415;SDS011;66489;49.230;8.520;2023-03-01T09:04:51;25.30;;;13.15;;
77415;SDS011;66489;49.230;8.520;2023-03-01T09:07:18;27.88;;;13.20;;
77415;SDS011;66489;49.230;8.520;2023-03-01T09:09:44;27.73;;;14.85;;
77415;SDS011;66489;49.230;8.520;2023-03-01T09:12:11;27.65;;;14.38;;
77415;SDS011;66489;49.230;8.520;2023-03-01T09:14:38;24.80;;;13.02;;
77415;SDS011;66489;49.230;8.520;2023-03-01T09:17:04;24.52;;;13.05;;
77415;SDS011;66489;49.230;8.520;2023-03-01T09:19:31;24.48;;;13.75;;
77415;SDS011;66489;49.230;8.520;2023-03-01T09:21:58;25.65;;;13.32;;
77415;SDS011;66489;49.230;8.520;2023-03-01T09:24:24;25.48;;;14.25;;
77415;SDS011;66489;49.230;8.520;2023-03-01T09:26:55;26.50;;;14.50;;
77415;SDS011;66489;49.230;8.520;2023-03-01T09:29:22;23.75;;;13.60;;
77415;SDS011;66489;49.230;8.520;2023-03-01T09:31:49;31.23;;;15.02;;
77415;SDS011;66489;49.230;8.520;2023-03-01T09:34:15;25.40;;;13.85;;
77415;SDS011;66489;49.230;8.520;2023-03-01T09:36:45;25.10;;;14.60;;
77415;SDS011;66489;49.230;8.520;2023-03-01T09:39:11;24.80;;;13.98;;
77415;SDS011;66489;49.230;8.520;2023-03-01T09:44:52;24.98;;;14.35;;
77415;SDS011;66489;49.230;8.520;2023-03-01T09:47:19;25.67;;;14.60;;
77415;SDS011;66489;49.230;8.520;2023-03-01T09:52:40;26.63;;;14.63;;
77415;SDS011;66489;49.230;8.520;2023-03-01T09:55:13;27.08;;;14.98;;
77415;SDS011;66489;49.230;8.520;2023-03-01T09:57:47;28.52;;;14.55;;
77415;SDS011;66489;49.230;8.520;2023-03-01T10:10:35;25.52;;;14.52;;
77415;SDS011;66489;49.230;8.520;2023-03-01T10:16:46;25.98;;;15.25;;
77415;SDS011;66489;49.230;8.520;2023-03-01T10:19:11;27.27;;;14.88;;
77415;SDS011;66489;49.230;8.520;2023-03-01T10:22:02;25.45;;;14.75;;
77415;SDS011;66489;49.230;8.520;2023-03-01T10:24:32;25.60;;;14.73;;
77415;SDS011;66489;49.230;8.520;2023-03-01T10:27:15;26.60;;;14.98;;
77415;SDS011;66489;49.230;8.520;2023-03-01T10:29:48;26.02;;;14.93;;
77415;SDS011;66489;49.230;8.520;2023-03-01T10:32:22;23.90;;;15.15;;
77415;SDS011;66489;49.230;8.520;2023-03-01T10:34:50;27.13;;;14.63;;
77415;SDS011;66489;49.230;8.520;2023-03-01T10:37:18;26.65;;;15.18;;
77415;SDS011;66489;49.230;8.520;2023-03-01T10:44:53;24.35;;;15.43;;
77415;SDS011;66489;49.230;8.520;2023-03-01T10:47:27;24.73;;;14.68;;
77415;SDS011;66489;49.230;8.520;2023-03-01T10:49:55;23.52;;;14.90;;
77415;SDS011;66489;49.230;8.520;2023-03-01T10:52:25;24.92;;;14.63;;
77415;SDS011;66489;49.230;8.520;2023-03-01T10:55:21;23.80;;;14.17;;
77415;SDS011;66489;49.230;8.520;2023-03-01T10:57:52;22.45;;;13.63;;
77415;SDS011;66489;49.230;8.520;2023-03-01T11:00:33;23.27;;;14.73;;
77415;SDS011;66489;49.230;8.520;2023-03-01T11:05:35;22.38;;;14.23;;
77415;SDS011;66489;49.230;8.520;2023-03-01T11:08:02;25.08;;;14.75;;
77415;SDS011;66489;49.230;8.520;2023-03-01T11:10:30;23.65;;;14.02;;
77415;SDS011;66489;49.230;8.520;2023-03-01T11:13:05;22.70;;;14.02;;
77415;SDS011;66489;49.230;8.520;2023-03-01T11:15:35;22.83;;;14.05;;
77415;SDS011;66489;49.230;8.520;2023-03-01T11:18:02;22.65;;;13.80;;
77415;SDS011;66489;49.230;8.520;2023-03-01T11:20:40;21.70;;;14.18;;
77415;SDS011;66489;49.230;8.520;2023-03-01T11:23:13;23.00;;;13.32;;
77415;SDS011;66489;49.230;8.520;2023-03-01T11:25:47;21.75;;;13.45;;
77415;SDS011;66489;49.230;8.520;2023-03-01T11:28:18;22.98;;;14.45;;
77415;SDS011;66489;49.230;8.520;2023-03-01T11:36:30;23.98;;;14.52;;
77415;SDS011;66489;49.230;8.520;2023-03-01T11:39:03;21.35;;;13.65;;
77415;SDS011;66489;49.230;8.520;2023-03-01T11:41:38;22.33;;;13.77;;
77415;SDS011;66489;49.230;8.520;2023-03-01T11:44:11;23.58;;;14.02;;
77415;SDS011;66489;49.230;8.520;2023-03-01T11:49:44;22.60;;;13.63;;
77415;SDS011;66489;49.230;8.520;2023-03-01T12:00:25;20.88;;;13.93;;
77415;SDS011;66489;49.230;8.520;2023-03-01T12:10:47;20.67;;;13.20;;
77415;SDS011;66489;49.230;8.520;2023-03-01T12:16:46;22.02;;;13.38;;
77415;SDS011;66489;49.230;8.520;2023-03-01T12:33:22;19.73;;;12.98;;
77415;SDS011;66489;49.230;8.520;2023-03-01T12:36:14;19.55;;;12.88;;
77415;SDS011;66489;49.230;8.520;2023-03-01T12:38:47;21.25;;;13.13;;
77415;SDS011;66489;49.230;8.520;2023-03-01T12:47:05;18.48;;;12.32;;
77415;SDS011;66489;49.230;8.520;2023-03-01T12:49:39;20.80;;;12.90;;
77415;SDS011;66489;49.230;8.520;2023-03-01T12:52:13;18.67;;;12.70;;
77415;SDS011;66489;49.230;8.520;2023-03-01T12:54:54;19.10;;;13.07;;
77415;SDS011;66489;49.230;8.520;2023-03-01T12:57:30;17.43;;;12.77;;
77415;SDS011;66489;49.230;8.520;2023-03-01T13:03:05;18.45;;;11.93;;
77415;SDS011;66489;49.230;8.520;2023-03-01T13:05:42;17.80;;;11.82;;
77415;SDS011;66489;49.230;8.520;2023-03-01T13:08:27;17.63;;;12.63;;
77415;SDS011;66489;49.230;8.520;2023-03-01T13:11:03;16.35;;;11.60;;
77415;SDS011;66489;49.230;8.520;2023-03-01T13:13:32;19.50;;;13.13;;
77415;SDS011;66489;49.230;8.520;2023-03-01T13:16:19;17.33;;;12.25;;
77415;SDS011;66489;49.230;8.520;2023-03-01T13:19:15;17.05;;;12.38;;
77415;SDS011;66489;49.230;8.520;2023-03-01T13:21:43;17.75;;;12.55;;
77415;SDS011;66489;49.230;8.520;2023-03-01T13:32:35;16.45;;;12.40;;
77415;SDS011;66489;49.230;8.520;2023-03-01T13:37:37;19.17;;;13.13;;
77415;SDS011;66489;49.230;8.520;2023-03-01T13:40:56;18.90;;;13.00;;
77415;SDS011;66489;49.230;8.520;2023-03-01T13:42:54;17.40;;;12.40;;
77415;SDS011;66489;49.230;8.520;2023-03-01T13:48:14;16.55;;;12.00;;
77415;SDS011;66489;49.230;8.520;2023-03-01T13:50:46;16.75;;;12.18;;
77415;SDS011;66489;49.230;8.520;2023-03-01T13:53:17;14.93;;;11.60;;
77415;SDS011;66489;49.230;8.520;2023-03-01T13:55:46;15.57;;;11.57;;
77415;SDS011;66489;49.230;8.520;2023-03-01T13:58:16;14.98;;;10.98;;
77415;SDS011;66489;49.230;8.520;2023-03-01T14:00:47;14.23;;;10.57;;
77415;SDS011;66489;49.230;8.520;2023-03-01T14:03:18;14.30;;;10.65;;
77415;SDS011;66489;49.230;8.520;2023-03-01T14:08:39;19.00;;;13.38;;
77415;SDS011;66489;49.230;8.520;2023-03-01T14:19:30;16.40;;;12.25;;
77415;SDS011;66489;49.230;8.520;2023-03-01T14:30:48;17.90;;;13.23;;
77415;SDS011;66489;49.230;8.520;2023-03-01T14:33:20;17.65;;;12.65;;
77415;SDS011;66489;49.230;8.520;2023-03-01T14:35:57;17.33;;;12.20;;
77415;SDS011;66489;49.230;8.520;2023-03-01T14:38:30;20.75;;;13.13;;
77415;SDS011;66489;49.230;8.520;2023-03-01T14:40:59;18.17;;;12.73;;
77415;SDS011;66489;49.230;8.520;2023-03-01T14:43:31;19.50;;;12.68;;
77415;SDS011;66489;49.230;8.520;2023-03-01T14:45:58;18.90;;;12.85;;
77415;SDS011;66489;49.230;8.520;2023-03-01T14:48:26;17.88;;;11.82;;
77415;SDS011;66489;49.230;8.520;2023-03-01T14:50:53;19.45;;;12.63;;
77415;SDS011;66489;49.230;8.520;2023-03-01T14:53:21;22.83;;;13.63;;
77415;SDS011;66489;49.230;8.520;2023-03-01T14:55:51;23.95;;;14.98;;
77415;SDS011;66489;49.230;8.520;2023-03-01T15:00:52;25.45;;;14.80;;
77415;SDS011;66489;49.230;8.520;2023-03-01T15:03:34;18.38;;;12.23;;
77415;SDS011;66489;49.230;8.520;2023-03-01T15:06:06;20.77;;;12.38;;
77415;SDS011;66489;49.230;8.520;2023-03-01T15:08:33;20.63;;;12.73;;
77415;SDS011;66489;49.230;8.520;2023-03-01T15:13:29;19.45;;;12.07;;
77415;SDS011;66489;49.230;8.520;2023-03-01T15:16:01;18.42;;;11.77;;
77415;SDS011;66489;49.230;8.520;2023-03-01T15:18:29;21.75;;;11.98;;
77415;SDS011;66489;49.230;8.520;2023-03-01T15:21:05;19.33;;;11.57;;
77415;SDS011;66489;49.230;8.520;2023-03-01T15:23:33;19.42;;;11.93;;
77415;SDS011;66489;49.230;8.520;2023-03-01T15:26:00;21.23;;;12.35;;
77415;SDS011;66489;49.230;8.520;2023-03-01T15:28:28;19.35;;;12.13;;
77415;SDS011;66489;49.230;8.520;2023-03-01T15:31:01;21.08;;;12.45;;
77415;SDS011;66489;49.230;8.520;2023-03-01T15:33:50;20.08;;;12.60;;
77415;SDS011;66489;49.230;8.520;2023-03-01T15:39:05;19.58;;;11.70;;
77415;SDS011;66489;49.230;8.520;2023-03-01T15:41:53;20.63;;;12.38;;
77415;SDS011;66489;49.230;8.520;2023-03-01T15:44:32;19.25;;;12.30;;
77415;SDS011;66489;49.230;8.520;2023-03-01T15:47:22;22.23;;;12.35;;
77415;SDS011;66489;49.230;8.520;2023-03-01T15:49:51;21.98;;;12.98;;
77415;SDS011;66489;49.230;8.520;2023-03-01T15:54:59;19.30;;;12.02;;
77415;SDS011;66489;49.230;8.520;2023-03-01T15:57:27;19.35;;;11.85;;
77415;SDS011;66489;49.230;8.520;2023-03-01T15:59:54;24.70;;;13.18;;
77415;SDS011;66489;49.230;8.520;2023-03-01T16:02:22;19.02;;;11.75;;
77415;SDS011;66489;49.230;8.520;2023-03-01T16:04:50;18.20;;;11.55;;
77415;SDS011;66489;49.230;8.520;2023-03-01T16:07:17;19.73;;;12.13;;
77415;SDS011;66489;49.230;8.520;2023-03-01T16:09:43;20.48;;;11.95;;
77415;SDS011;66489;49.230;8.520;2023-03-01T16:12:13;19.70;;;12.35;;
77415;SDS011;66489;49.230;8.520;2023-03-01T16:14:40;20.90;;;12.38;;
77415;SDS011;66489;49.230;8.520;2023-03-01T16:17:07;19.58;;;11.88;;
77415;SDS011;66489;49.230;8.520;2023-03-01T16:19:39;20.33;;;11.80;;
77415;SDS011;66489;49.230;8.520;2023-03-01T16:22:10;19.30;;;11.32;;
77415;SDS011;66489;49.230;8.520;2023-03-01T16:24:38;19.10;;;11.45;;
77415;SDS011;66489;49.230;8.520;2023-03-01T16:27:04;21.02;;;12.60;;
77415;SDS011;66489;49.230;8.520;2023-03-01T16:29:31;18.63;;;11.75;;
77415;SDS011;66489;49.230;8.520;2023-03-01T16:32:00;18.73;;;11.30;;
77415;SDS011;66489;49.230;8.520;2023-03-01T16:34:31;20.23;;;12.18;;
77415;SDS011;66489;49.230;8.520;2023-03-01T16:37:01;21.02;;;11.90;;
77415;SDS011;66489;49.230;8.520;2023-03-01T16:39:28;20.40;;;12.10;;
77415;SDS011;66489;49.230;8.520;2023-03-01T16:41:59;19.60;;;11.82;;
77415;SDS011;66489;49.230;8.520;2023-03-01T16:44:29;18.77;;;11.55;;
77415;SDS011;66489;49.230;8.520;2023-03-01T16:46:56;19.60;;;11.90;;
77415;SDS011;66489;49.230;8.520;2023-03-01T16:49:23;18.67;;;11.35;;
77415;SDS011;66489;49.230;8.520;2023-03-01T16:51:50;18.20;;;11.70;;
77415;SDS011;66489;49.230;8.520;2023-03-01T16:54:17;20.02;;;11.27;;
77415;SDS011;66489;49.230;8.520;2023-03-01T16:56:53;18.95;;;11.65;;
77415;SDS011;66489;49.230;8.520;2023-03-01T16:59:19;21.10;;;12.23;;
77415;SDS011;66489;49.230;8.520;2023-03-01T17:01:50;18.77;;;11.73;;
77415;SDS011;66489;49.230;8.520;2023-03-01T17:04:24;19.85;;;12.80;;
77415;SDS011;66489;49.230;8.520;2023-03-01T17:06:51;21.52;;;13.00;;
77415;SDS011;66489;49.230;8.520;2023-03-01T17:09:18;21.35;;;12.50;;
77415;SDS011;66489;49.230;8.520;2023-03-01T17:11:50;19.85;;;12.10;;
77415;SDS011;66489;49.230;8.520;2023-03-01T17:14:20;22.98;;;12.23;;
77415;SDS011;66489;49.230;8.520;2023-03-01T17:16:49;20.25;;;11.93;;
77415;SDS011;66489;49.230;8.520;2023-03-01T17:19:19;21.98;;;11.90;;
77415;SDS011;66489;49.230;8.520;2023-03-01T17:21:46;18.65;;;11.38;;
77415;SDS011;66489;49.230;8.520;2023-03-01T17:24:12;20.77;;;11.80;;
77415;SDS011;66489;49.230;8.520;2023-03-01T17:26:39;20.40;;;11.13;;
77415;SDS011;66489;49.230;8.520;2023-03-01T17:29:06;19.15;;;11.73;;
77415;SDS011;66489;49.230;8.520;2023-03-01T17:31:33;18.95;;;11.60;;
77415;SDS011;66489;49.230;8.520;2023-03-01T17:34:00;18.15;;;11.02;;
77415;SDS011;66489;49.230;8.520;2023-03-01T17:36:30;19.33;;;10.50;;
77415;SDS011;66489;49.230;8.520;2023-03-01T17:38:59;21.05;;;11.25;;
77415;SDS011;66489;49.230;8.520;2023-03-01T17:41:26;36.88;;;19.20;;
77415;SDS011;66489;49.230;8.520;2023-03-01T17:43:57;45.88;;;24.63;;
77415;SDS011;66489;49.230;8.520;2023-03-01T17:46:23;62.90;;;33.35;;
77415;SDS011;66489;49.230;8.520;2023-03-01T17:48:52;50.42;;;28.02;;
77415;SDS011;66489;49.230;8.520;2023-03-01T17:51:18;34.95;;;20.10;;
77415;SDS011;66489;49.230;8.520;2023-03-01T17:53:45;30.60;;;16.60;;
77415;SDS011;66489;49.230;8.520;2023-03-01T17:56:12;26.48;;;14.18;;
77415;SDS011;66489;49.230;8.520;2023-03-01T17:58:41;21.17;;;11.98;;
77415;SDS011;66489;49.230;8.520;2023-03-01T18:03:36;22.00;;;11.93;;
77415;SDS011;66489;49.230;8.520;2023-03-01T18:06:09;26.92;;;14.63;;
77415;SDS011;66489;49.230;8.520;2023-03-01T18:08:37;28.20;;;14.52;;
77415;SDS011;66489;49.230;8.520;2023-03-01T18:11:04;22.65;;;12.73;;
77415;SDS011;66489;49.230;8.520;2023-03-01T18:13:34;26.08;;;13.13;;
77415;SDS011;66489;49.230;8.520;2023-03-01T18:16:05;27.58;;;12.82;;
77415;SDS011;66489;49.230;8.520;2023-03-01T18:18:33;24.48;;;12.00;;
77415;SDS011;66489;49.230;8.520;2023-03-01T18:21:00;24.77;;;12.27;;
77415;SDS011;66489;49.230;8.520;2023-03-01T18:23:28;22.20;;;11.73;;
77415;SDS011;66489;49.230;8.520;2023-03-01T18:26:14;19.67;;;10.90;;
77415;SDS011;66489;49.230;8.520;2023-03-01T18:28:43;22.35;;;11.25;;
77415;SDS011;66489;49.230;8.520;2023-03-01T18:31:13;22.50;;;11.02;;
77415;SDS011;66489;49.230;8.520;2023-03-01T18:33:44;19.77;;;10.68;;
77415;SDS011;66489;49.230;8.520;2023-03-01T18:39:07;20.15;;;10.77;;
77415;SDS011;66489;49.230;8.520;2023-03-01T18:41:34;18.00;;;10.02;;
77415;SDS011;66489;49.230;8.520;2023-03-01T18:44:02;20.13;;;9.98;;
77415;SDS011;66489;49.230;8.520;2023-03-01T18:46:30;20.13;;;10.10;;
77415;SDS011;66489;49.230;8.520;2023-03-01T18:48:58;18.52;;;10.40;;
77415;SDS011;66489;49.230;8.520;2023-03-01T18:51:25;21.05;;;10.40;;
77415;SDS011;66489;49.230;8.520;2023-03-01T18:53:53;19.48;;;9.88;;
77415;SDS011;66489;49.230;8.520;2023-03-01T18:56:20;18.88;;;9.90;;
77415;SDS011;66489;49.230;8.520;2023-03-01T18:58:47;19.15;;;10.02;;
77415;SDS011;66489;49.230;8.520;2023-03-01T19:01:15;18.27;;;9.45;;
77415;SDS011;66489;49.230;8.520;2023-03-01T19:03:43;19.35;;;9.68;;
77415;SDS011;66489;49.230;8.520;2023-03-01T19:06:10;19.38;;;9.93;;
77415;SDS011;66489;49.230;8.520;2023-03-01T19:08:37;18.38;;;9.73;;
77415;SDS011;66489;49.230;8.520;2023-03-01T19:11:07;18.10;;;9.23;;
77415;SDS011;66489;49.230;8.520;2023-03-01T19:13:43;17.77;;;9.80;;
77415;SDS011;66489;49.230;8.520;2023-03-01T19:16:15;20.73;;;9.63;;
77415;SDS011;66489;49.230;8.520;2023-03-01T19:18:45;17.35;;;9.65;;
77415;SDS011;66489;49.230;8.520;2023-03-01T19:21:24;18.35;;;10.30;;
77415;SDS011;66489;49.230;8.520;2023-03-01T19:23:56;18.65;;;9.98;;
77415;SDS011;66489;49.230;8.520;2023-03-01T19:29:09;20.38;;;10.07;;
77415;SDS011;66489;49.230;8.520;2023-03-01T19:31:36;18.52;;;9.90;;
77415;SDS011;66489;49.230;8.520;2023-03-01T19:34:04;20.70;;;10.45;;
77415;SDS011;66489;49.230;8.520;2023-03-01T19:36:38;18.60;;;10.65;;
77415;SDS011;66489;49.230;8.520;2023-03-01T19:39:25;19.83;;;10.32;;
77415;SDS011;66489;49.230;8.520;2023-03-01T19:41:57;14.68;;;7.38;;
77415;SDS011;66489;49.230;8.520;2023-03-01T19:44:26;21.73;;;12.13;;
77415;SDS011;66489;49.230;8.520;2023-03-01T19:47:16;18.58;;;10.52;;
77415;SDS011;66489;49.230;8.520;2023-03-01T19:49:44;18.80;;;10.85;;
77415;SDS011;66489;49.230;8.520;2023-03-01T19:52:11;19.15;;;10.30;;
77415;SDS011;66489;49.230;8.520;2023-03-01T19:54:37;18.77;;;10.40;;
77415;SDS011;66489;49.230;8.520;2023-03-01T19:57:04;23.23;;;11.80;;
77415;SDS011;66489;49.230;8.520;2023-03-01T19:59:31;23.42;;;14.15;;
77415;SDS011;66489;49.230;8.520;2023-03-01T20:01:57;22.20;;;13.10;;
77415;SDS011;66489;49.230;8.520;2023-03-01T20:04:24;22.80;;;12.73;;
77415;SDS011;66489;49.230;8.520;2023-03-01T20:06:51;27.02;;;14.85;;
77415;SDS011;66489;49.230;8.520;2023-03-01T20:09:18;26.27;;;12.88;;
77415;SDS011;66489;49.230;8.520;2023-03-01T20:11:50;23.60;;;12.63;;
77415;SDS011;66489;49.230;8.520;2023-03-01T20:14:17;23.60;;;12.27;;
77415;SDS011;66489;49.230;8.520;2023-03-01T20:16:44;22.15;;;11.35;;
77415;SDS011;66489;49.230;8.520;2023-03-01T20:19:10;21.50;;;10.80;;
77415;SDS011;66489;49.230;8.520;2023-03-01T20:21:37;17.63;;;10.02;;
77415;SDS011;66489;49.230;8.520;2023-03-01T20:24:04;18.80;;;10.07;;
77415;SDS011;66489;49.230;8.520;2023-03-01T20:26:31;17.52;;;9.70;;
77415;SDS011;66489;49.230;8.520;2023-03-01T20:29:00;19.92;;;10.25;;
77415;SDS011;66489;49.230;8.520;2023-03-01T20:31:27;21.02;;;11.15;;
77415;SDS011;66489;49.230;8.520;2023-03-01T20:33:55;24.48;;;11.35;;
77415;SDS011;66489;49.230;8.520;2023-03-01T20:36:22;25.13;;;12.25;;
77415;SDS011;66489;49.230;8.520;2023-03-01T20:38:52;21.25;;;11.77;;
77415;SDS011;66489;49.230;8.520;2023-03-01T20:41:19;23.75;;;12.52;;
77415;SDS011;66489;49.230;8.520;2023-03-01T20:43:46;20.13;;;11.20;;
77415;SDS011;66489;49.230;8.520;2023-03-01T20:46:20;21.75;;;11.73;;
77415;SDS011;66489;49.230;8.520;2023-03-01T20:48:51;26.83;;;13.15;;
77415;SDS011;66489;49.230;8.520;2023-03-01T20:51:22;25.80;;;13.65;;
77415;SDS011;66489;49.230;8.520;2023-03-01T20:53:48;32.40;;;16.33;;
77415;SDS011;66489;49.230;8.520;2023-03-01T20:56:16;29.00;;;13.95;;
77415;SDS011;66489;49.230;8.520;2023-03-01T20:58:59;25.55;;;12.52;;
77415;SDS011;66489;49.230;8.520;2023-03-01T21:01:26;23.23;;;11.93;;
77415;SDS011;66489;49.230;8.520;2023-03-01T21:03:54;24.10;;;11.90;;
77415;SDS011;66489;49.230;8.520;2023-03-01T21:06:21;21.83;;;11.45;;
77415;SDS011;66489;49.230;8.520;2023-03-01T21:09:08;22.15;;;11.90;;
77415;SDS011;66489;49.230;8.520;2023-03-01T21:11:35;26.05;;;12.70;;
77415;SDS011;66489;49.230;8.520;2023-03-01T21:14:02;23.50;;;12.25;;
77415;SDS011;66489;49.230;8.520;2023-03-01T21:16:30;28.75;;;15.52;;
77415;SDS011;66489;49.230;8.520;2023-03-01T21:18:58;26.63;;;14.13;;
77415;SDS011;66489;49.230;8.520;2023-03-01T21:21:29;27.27;;;13.10;;
77415;SDS011;66489;49.230;8.520;2023-03-01T21:23:57;22.90;;;12.82;;
77415;SDS011;66489;49.230;8.520;2023-03-01T21:26:25;28.13;;;13.85;;
77415;SDS011;66489;49.230;8.520;2023-03-01T21:28:56;29.98;;;14.07;;
77415;SDS011;66489;49.230;8.520;2023-03-01T21:31:29;28.20;;;13.70;;
77415;SDS011;66489;49.230;8.520;2023-03-01T21:33:59;25.73;;;13.57;;
77415;SDS011;66489;49.230;8.520;2023-03-01T21:36:29;26.05;;;14.32;;
77415;SDS011;66489;49.230;8.520;2023-03-01T21:39:00;24.80;;;13.75;;
77415;SDS011;66489;49.230;8.520;2023-03-01T21:41:31;24.75;;;13.95;;
77415;SDS011;66489;49.230;8.520;2023-03-01T21:44:02;26.73;;;14.13;;
77415;SDS011;66489;49.230;8.520;2023-03-01T21:46:31;26.05;;;13.75;;
77415;SDS011;66489;49.230;8.520;2023-03-01T21:49:01;26.60;;;14.15;;